createdAt,value
2023-03-26T00:02:21.001Z,99391.34
2023-03-26T00:04:53.432Z,99385.59
2023-03-26T00:07:23.883Z,99392.72
2023-03-26T00:09:51.856Z,99387.25
2023-03-26T00:12:20.367Z,99387.59
2023-03-26T00:14:48.906Z,99387.84
2023-03-26T00:17:21.351Z,99394.16
2023-03-26T00:19:50.010Z,99393.06
2023-03-26T00:22:17.997Z,99397.44
2023-03-26T00:24:49.450Z,99390.44
2023-03-26T00:27:21.525Z,99389.13
2023-03-26T00:29:50.995Z,99379.25
2023-03-26T00:32:18.709Z,99381.94
2023-03-26T00:34:48.161Z,99379.00
2023-03-26T00:37:15.968Z,99384.31
2023-03-26T00:39:50.896Z,99384.25
2023-03-26T00:42:19.271Z,99381.94
2023-03-26T00:44:47.742Z,99368.25
2023-03-26T00:47:16.124Z,99368.59
2023-03-26T00:49:46.899Z,99367.87
2023-03-26T00:52:21.046Z,99363.00
2023-03-26T00:54:52.395Z,99365.34
2023-03-26T00:57:34.556Z,99364.16
2023-03-26T01:00:15.902Z,99358.38
2023-03-26T01:02:45.250Z,99358.44
2023-03-26T01:05:35.139Z,99357.12
2023-03-26T01:08:16.890Z,99362.03
2023-03-26T01:10:50.891Z,99362.63
2023-03-26T01:13:23.920Z,99368.31
2023-03-26T01:15:53.139Z,99365.59
2023-03-26T01:18:26.441Z,99360.84
2023-03-26T01:20:58.575Z,99370.78
2023-03-26T01:23:41.671Z,99372.00
2023-03-26T01:26:40.969Z,99372.47
2023-03-26T01:29:37.622Z,99373.31
2023-03-26T01:32:19.280Z,99369.47
2023-03-26T01:35:00.497Z,99374.25
2023-03-26T01:37:47.139Z,99375.06
2023-03-26T01:40:19.114Z,99386.88
2023-03-26T01:42:54.189Z,99381.19
2023-03-26T01:45:25.731Z,99380.97
2023-03-26T01:47:55.082Z,99377.50
2023-03-26T01:50:22.684Z,99371.69
2023-03-26T01:52:51.879Z,99375.19
2023-03-26T01:55:22.529Z,99379.53
2023-03-26T01:58:09.949Z,99373.06
2023-03-26T02:01:02.900Z,99376.25
2023-03-26T02:03:33.838Z,99380.72
2023-03-26T02:06:16.664Z,99376.53
2023-03-26T02:08:54.178Z,99384.47
2023-03-26T02:11:23.500Z,99388.34
2023-03-26T02:13:51.865Z,99393.00
2023-03-26T02:16:21.047Z,99394.94
2023-03-26T02:18:51.554Z,99389.22
2023-03-26T02:21:26.194Z,99389.25
2023-03-26T02:24:14.673Z,99393.94
2023-03-26T02:26:43.007Z,99393.75
2023-03-26T02:29:14.102Z,99396.75
2023-03-26T02:31:43.659Z,99398.31
2023-03-26T02:34:11.588Z,99384.59
2023-03-26T02:36:43.038Z,99383.78
2023-03-26T02:39:11.963Z,99375.06
2023-03-26T02:41:40.040Z,99378.81
2023-03-26T02:44:09.213Z,99377.56
2023-03-26T02:46:40.925Z,99377.53
2023-03-26T02:49:10.497Z,99376.69
2023-03-26T02:51:39.479Z,99369.84
2023-03-26T02:54:07.325Z,99352.75
2023-03-26T02:56:35.706Z,99362.03
2023-03-26T02:59:11.044Z,99368.13
2023-03-26T03:01:47.901Z,99369.09
2023-03-26T03:04:18.021Z,99358.03
2023-03-26T03:06:45.964Z,99366.72
2023-03-26T03:09:14.129Z,99364.75
2023-03-26T03:11:46.555Z,99361.37
2023-03-26T03:14:14.474Z,99357.78
2023-03-26T03:16:42.808Z,99357.53
2023-03-26T03:19:11.862Z,99358.22
2023-03-26T03:21:40.991Z,99361.09
2023-03-26T03:24:09.415Z,99367.25
2023-03-26T03:26:37.770Z,99366.38
2023-03-26T03:29:12.976Z,99360.03
2023-03-26T03:31:41.437Z,99364.78
2023-03-26T03:34:11.561Z,99361.28
2023-03-26T03:36:40.170Z,99357.81
2023-03-26T03:39:09.012Z,99360.81
2023-03-26T03:41:37.130Z,99357.28
2023-03-26T03:44:06.469Z,99369.81
2023-03-26T03:46:35.708Z,99373.59
2023-03-26T03:49:04.376Z,99372.94
2023-03-26T03:51:32.413Z,99374.09
2023-03-26T03:54:02.001Z,99377.16
2023-03-26T03:56:31.402Z,99379.94
2023-03-26T03:59:04.767Z,99376.56
2023-03-26T04:01:36.509Z,99381.94
2023-03-26T04:04:11.286Z,99388.56
2023-03-26T04:06:39.573Z,99388.78
2023-03-26T04:09:10.066Z,99398.75
2023-03-26T04:11:39.557Z,99393.59
2023-03-26T04:14:10.569Z,99389.91
2023-03-26T04:16:39.094Z,99396.47
2023-03-26T04:19:07.046Z,99399.41
2023-03-26T04:21:37.853Z,99395.09
2023-03-26T04:24:07.462Z,99400.25
2023-03-26T04:26:38.557Z,99389.84
2023-03-26T04:29:12.015Z,99389.84
2023-03-26T04:31:41.133Z,99392.50
2023-03-26T04:34:24.309Z,99394.53
2023-03-26T04:36:56.256Z,99401.00
2023-03-26T04:39:29.334Z,99399.87
2023-03-26T04:42:15.846Z,99401.84
2023-03-26T04:44:44.484Z,99401.84
2023-03-26T04:47:13.622Z,99402.97
2023-03-26T04:49:42.006Z,99405.06
2023-03-26T04:52:12.447Z,99401.84
2023-03-26T04:54:46.335Z,99393.00
2023-03-26T04:57:24.325Z,99410.00
2023-03-26T04:59:53.256Z,99408.97
2023-03-26T05:02:21.364Z,99413.63
2023-03-26T05:04:50.966Z,99411.72
2023-03-26T05:07:22.544Z,99407.31
2023-03-26T05:10:04.955Z,99411.66
2023-03-26T05:12:35.170Z,99407.50
2023-03-26T05:15:05.998Z,99403.16
2023-03-26T05:17:35.182Z,99398.72
2023-03-26T05:20:05.209Z,99395.16
2023-03-26T05:22:33.772Z,99403.09
2023-03-26T05:25:08.496Z,99403.00
2023-03-26T05:27:37.481Z,99401.09
2023-03-26T05:30:07.274Z,99399.87
2023-03-26T05:32:37.091Z,99403.88
2023-03-26T05:35:20.056Z,99400.75
2023-03-26T05:37:51.983Z,99392.47
2023-03-26T05:40:21.881Z,99388.69
2023-03-26T05:42:51.367Z,99390.41
2023-03-26T05:45:22.517Z,99388.69
2023-03-26T05:47:55.100Z,99384.59
2023-03-26T05:50:34.017Z,99385.16
2023-03-26T05:53:02.716Z,99388.88
2023-03-26T05:55:37.102Z,99384.19
2023-03-26T05:58:13.202Z,99381.97
2023-03-26T06:00:55.404Z,99385.56
2023-03-26T06:03:25.571Z,99390.31
2023-03-26T06:06:00.893Z,99386.19
2023-03-26T06:11:08.350Z,99370.34
2023-03-26T06:13:37.893Z,99379.84
2023-03-26T06:16:26.596Z,99379.12
2023-03-26T06:19:08.841Z,99369.09
2023-03-26T06:21:45.342Z,99375.94
2023-03-26T06:24:20.804Z,99366.91
2023-03-26T06:26:50.119Z,99369.06
2023-03-26T06:29:22.230Z,99380.94
2023-03-26T06:32:12.349Z,99383.34
2023-03-26T06:35:01.979Z,99382.09
2023-03-26T06:37:31.237Z,99380.53
2023-03-26T06:40:00.893Z,99381.06
2023-03-26T06:43:08.625Z,99381.22
2023-03-26T06:45:35.945Z,99386.06
2023-03-26T06:50:49.029Z,99375.16
2023-03-26T06:53:19.393Z,99376.66
2023-03-26T06:55:54.031Z,99380.09
2023-03-26T06:58:25.300Z,99387.06
2023-03-26T07:00:59.718Z,99380.72
2023-03-26T07:03:55.170Z,99386.94
2023-03-26T07:06:39.043Z,99381.13
2023-03-26T07:09:10.672Z,99386.41
2023-03-26T07:11:41.734Z,99385.81
2023-03-26T07:14:13.902Z,99387.94
2023-03-26T07:16:51.931Z,99387.59
2023-03-26T07:19:30.199Z,99386.09
2023-03-26T07:22:02.378Z,99389.06
2023-03-26T07:24:36.172Z,99385.19
2023-03-26T07:27:37.208Z,99392.00
2023-03-26T07:30:30.567Z,99386.88
2023-03-26T07:33:54.008Z,99383.81
2023-03-26T07:36:38.092Z,99375.41
2023-03-26T07:39:25.356Z,99380.62
2023-03-26T07:42:24.961Z,99374.00
2023-03-26T07:45:35.968Z,99380.00
2023-03-26T07:48:13.387Z,99380.22
2023-03-26T07:50:49.062Z,99382.25
2023-03-26T07:53:30.115Z,99380.94
2023-03-26T07:56:18.037Z,99388.38
2023-03-26T07:58:59.039Z,99376.78
2023-03-26T08:02:12.662Z,99389.41
2023-03-26T08:05:21.890Z,99378.34
2023-03-26T08:07:56.781Z,99392.34
2023-03-26T08:10:51.990Z,99383.09
2023-03-26T08:19:34.724Z,99374.47
2023-03-26T08:22:13.011Z,99368.34
2023-03-26T08:25:17.698Z,99369.00
2023-03-26T08:28:12.066Z,99360.19
2023-03-26T08:30:47.301Z,99365.94
2023-03-26T08:33:20.877Z,99358.06
2023-03-26T08:38:27.989Z,99356.16
2023-03-26T08:44:20.653Z,99356.13
2023-03-26T08:47:17.307Z,99357.44
2023-03-26T08:50:21.162Z,99356.16
2023-03-26T08:56:14.923Z,99344.84
2023-03-26T08:59:08.200Z,99346.75
2023-03-26T09:01:39.774Z,99344.41
2023-03-26T09:04:11.347Z,99341.28
2023-03-26T09:07:10.013Z,99337.81
2023-03-26T09:10:19.821Z,99342.69
2023-03-26T09:13:06.896Z,99333.53
2023-03-26T09:16:14.983Z,99330.94
2023-03-26T09:18:54.933Z,99338.47
2023-03-26T09:22:24.200Z,99331.91
2023-03-26T09:25:18.333Z,99325.81
2023-03-26T09:27:49.327Z,99320.66
2023-03-26T09:30:46.141Z,99320.03
2023-03-26T09:36:24.967Z,99305.31
2023-03-26T09:39:22.617Z,99305.84
2023-03-26T09:42:10.273Z,99307.03
2023-03-26T09:45:09.928Z,99292.47
2023-03-26T09:48:06.926Z,99292.34
2023-03-26T09:51:04.903Z,99287.00
2023-03-26T09:53:50.243Z,99273.56
2023-03-26T09:56:32.087Z,99275.34
2023-03-26T09:59:29.414Z,99258.22
2023-03-26T10:05:20.903Z,99249.41
2023-03-26T10:08:05.190Z,99238.94
2023-03-26T10:10:52.663Z,99258.66
2023-03-26T10:13:33.498Z,99267.50
2023-03-26T10:16:36.723Z,99267.81
2023-03-26T10:19:30.247Z,99274.63
2023-03-26T10:22:06.406Z,99271.44
2023-03-26T10:27:44.548Z,99266.38
2023-03-26T10:30:14.501Z,99253.41
2023-03-26T10:33:12.931Z,99253.09
2023-03-26T10:35:57.146Z,99250.72
2023-03-26T10:38:47.934Z,99239.81
2023-03-26T10:41:30.168Z,99235.84
2023-03-26T10:44:26.427Z,99227.97
2023-03-26T10:47:20.012Z,99211.84
2023-03-26T10:50:22.994Z,99220.53
2023-03-26T10:53:26.041Z,99217.28
2023-03-26T10:56:27.283Z,99211.41
2023-03-26T10:58:58.286Z,99199.41
2023-03-26T11:01:44.106Z,99195.88
2023-03-26T11:04:41.519Z,99197.47
2023-03-26T11:07:28.946Z,99187.56
2023-03-26T11:10:12.885Z,99184.41
2023-03-26T11:18:48.313Z,99165.22
2023-03-26T11:21:47.294Z,99163.09
2023-03-26T11:24:41.913Z,99160.88
2023-03-26T11:27:28.954Z,99143.97
2023-03-26T11:30:16.922Z,99136.09
2023-03-26T11:33:03.932Z,99147.87
2023-03-26T11:35:40.639Z,99142.84
2023-03-26T11:38:40.944Z,99126.88
2023-03-26T11:41:16.918Z,99105.53
2023-03-26T11:44:12.924Z,99112.84
2023-03-26T11:46:51.220Z,99105.12
2023-03-26T11:49:26.422Z,99098.84
2023-03-26T11:51:56.951Z,99088.78
2023-03-26T11:54:24.901Z,99084.75
2023-03-26T11:57:05.387Z,99068.09
2023-03-26T11:59:56.570Z,99057.94
2023-03-26T12:02:25.348Z,99064.72
2023-03-26T12:08:19.847Z,99047.31
2023-03-26T12:10:59.330Z,99048.44
2023-03-26T12:13:29.054Z,99030.31
2023-03-26T12:16:13.263Z,99033.63
2023-03-26T12:18:46.788Z,99023.44
2023-03-26T12:21:29.629Z,99021.28
2023-03-26T12:24:10.166Z,99002.53
2023-03-26T12:26:46.851Z,98995.16
2023-03-26T12:29:21.112Z,98989.56
2023-03-26T12:31:57.389Z,98996.66
2023-03-26T12:34:37.640Z,98993.28
2023-03-26T12:37:07.511Z,98985.34
2023-03-26T12:40:10.313Z,98988.19
2023-03-26T12:44:47.003Z,98965.78
2023-03-26T12:45:43.729Z,98962.81
2023-03-26T12:48:16.111Z,98967.03
2023-03-26T12:51:11.183Z,98976.78
2023-03-26T12:54:01.445Z,98966.75
2023-03-26T12:56:38.970Z,98974.56
2023-03-26T12:59:49.133Z,98974.00
2023-03-26T13:02:31.071Z,98957.59
2023-03-26T13:05:48.118Z,98957.41
2023-03-26T13:08:41.013Z,98944.94
2023-03-26T13:11:58.028Z,98940.59
2023-03-26T13:15:02.960Z,98923.44
2023-03-26T13:17:37.065Z,98913.44
2023-03-26T13:23:12.843Z,98906.62
2023-03-26T13:26:06.856Z,98899.66
2023-03-26T13:28:52.719Z,98907.28
2023-03-26T13:31:30.861Z,98888.31
2023-03-26T13:34:30.148Z,98883.47
2023-03-26T13:37:01.093Z,98879.09
2023-03-26T13:39:53.042Z,98879.44
2023-03-26T13:43:02.923Z,98878.78
2023-03-26T13:45:49.250Z,98862.06
2023-03-26T13:48:23.078Z,98865.44
2023-03-26T13:51:01.890Z,98862.38
2023-03-26T13:53:47.662Z,98864.41
2023-03-26T13:56:19.984Z,98859.50
2023-03-26T13:58:54.042Z,98845.44
2023-03-26T14:01:35.541Z,98840.53
2023-03-26T14:04:19.934Z,98837.72
2023-03-26T14:07:01.325Z,98827.59
2023-03-26T14:09:51.546Z,98826.91
2023-03-26T14:15:40.998Z,98823.03
2023-03-26T14:18:34.083Z,98804.87
2023-03-26T14:21:34.704Z,98815.47
2023-03-26T14:24:16.323Z,98818.72
2023-03-26T14:26:46.199Z,98816.62
2023-03-26T14:29:23.851Z,98820.78
2023-03-26T14:32:30.123Z,98813.50
2023-03-26T14:35:41.888Z,98803.97
2023-03-26T14:38:54.000Z,98794.53
2023-03-26T14:41:33.933Z,98804.25
2023-03-26T14:44:28.497Z,98789.66
2023-03-26T14:47:15.832Z,98790.78
2023-03-26T14:49:55.728Z,98793.41
2023-03-26T14:52:42.376Z,98785.75
2023-03-26T14:56:13.705Z,98774.72
2023-03-26T14:59:05.093Z,98776.16
2023-03-26T15:01:49.113Z,98769.16
2023-03-26T15:04:49.189Z,98757.03
2023-03-26T15:07:34.345Z,98749.50
2023-03-26T15:10:15.009Z,98746.91
2023-03-26T15:13:34.997Z,98749.69
2023-03-26T15:16:28.075Z,98738.59
2023-03-26T15:19:35.977Z,98739.28
2023-03-26T15:25:11.354Z,98737.72
2023-03-26T15:27:52.006Z,98730.28
2023-03-26T15:33:28.897Z,98722.44
2023-03-26T15:36:21.580Z,98730.59
2023-03-26T15:39:34.993Z,98718.34
2023-03-26T15:42:12.111Z,98718.16
2023-03-26T15:47:43.090Z,98706.72
2023-03-26T15:50:48.686Z,98709.84
2023-03-26T15:54:01.058Z,98711.72
2023-03-26T15:56:49.514Z,98716.94
2023-03-26T15:59:53.980Z,98704.75
2023-03-26T16:02:34.949Z,98698.53
2023-03-26T16:05:22.319Z,98690.50
2023-03-26T16:08:03.152Z,98688.06
2023-03-26T16:11:02.550Z,98677.03
2023-03-26T16:13:38.730Z,98669.53
2023-03-26T16:16:16.321Z,98662.38
2023-03-26T16:19:21.865Z,98658.16
2023-03-26T16:22:01.272Z,98647.44
2023-03-26T16:27:32.542Z,98638.91
2023-03-26T16:30:09.800Z,98643.00
2023-03-26T16:32:50.246Z,98642.31
2023-03-26T16:35:54.087Z,98638.16
2023-03-26T16:41:34.019Z,98635.56
2023-03-26T16:44:14.134Z,98642.63
2023-03-26T16:46:54.945Z,98645.31
2023-03-26T16:49:31.986Z,98643.19
2023-03-26T16:52:19.033Z,98642.31
2023-03-26T16:54:52.679Z,98639.09
2023-03-26T16:57:41.948Z,98641.53
2023-03-26T17:00:17.229Z,98640.25
2023-03-26T17:03:25.852Z,98634.50
2023-03-26T17:06:45.244Z,98631.13
2023-03-26T17:09:24.995Z,98644.19
2023-03-26T17:12:19.408Z,98642.78
2023-03-26T17:15:16.018Z,98636.47
2023-03-26T17:18:03.048Z,98635.63
2023-03-26T17:23:43.589Z,98634.78
2023-03-26T17:26:23.534Z,98640.84
2023-03-26T17:29:09.746Z,98639.44
2023-03-26T17:31:48.742Z,98633.34
2023-03-26T17:34:40.293Z,98639.88
2023-03-26T17:37:28.192Z,98633.38
2023-03-26T17:40:27.037Z,98631.97
2023-03-26T17:43:11.956Z,98629.72
2023-03-26T17:48:29.086Z,98640.66
2023-03-26T17:51:04.176Z,98634.34
2023-03-26T17:53:38.042Z,98646.28
2023-03-26T17:56:16.206Z,98635.31
2023-03-26T17:58:56.929Z,98633.88
2023-03-26T18:01:46.240Z,98632.06
2023-03-26T18:04:32.021Z,98634.31
2023-03-26T18:10:36.517Z,98632.22
2023-03-26T18:13:28.090Z,98629.41
2023-03-26T18:19:00.969Z,98627.19
2023-03-26T18:21:40.255Z,98629.44
2023-03-26T18:24:21.091Z,98623.81
2023-03-26T18:27:12.425Z,98629.69
2023-03-26T18:30:02.867Z,98629.47
2023-03-26T18:32:42.028Z,98617.06
2023-03-26T18:38:00.999Z,98619.88
2023-03-26T18:43:35.529Z,98609.19
2023-03-26T18:46:09.248Z,98608.75
2023-03-26T18:51:11.976Z,98605.66
2023-03-26T18:53:55.938Z,98606.91
2023-03-26T18:56:37.234Z,98592.91
2023-03-26T18:59:38.092Z,98591.19
2023-03-26T19:02:18.181Z,98584.44
2023-03-26T19:04:56.961Z,98582.22
2023-03-26T19:07:39.195Z,98573.53
2023-03-26T19:10:27.415Z,98580.22
2023-03-26T19:13:09.086Z,98569.03
2023-03-26T19:15:36.880Z,98568.59
2023-03-26T19:18:14.240Z,98561.44
2023-03-26T19:20:45.320Z,98554.94
2023-03-26T19:23:25.603Z,98559.44
2023-03-26T19:26:02.828Z,98552.16
2023-03-26T19:28:41.087Z,98546.81
2023-03-26T19:31:21.967Z,98549.31
2023-03-26T19:33:58.082Z,98542.44
2023-03-26T19:36:37.178Z,98535.56
2023-03-26T19:39:27.226Z,98531.00
2023-03-26T19:42:16.977Z,98523.94
2023-03-26T19:44:52.839Z,98517.22
2023-03-26T19:47:43.556Z,98511.72
2023-03-26T19:53:16.789Z,98502.38
2023-03-26T19:56:07.579Z,98495.88
2023-03-26T19:58:47.293Z,98493.63
2023-03-26T20:01:32.110Z,98480.44
2023-03-26T20:04:05.092Z,98483.66
2023-03-26T20:06:44.171Z,98466.69
2023-03-26T20:09:24.626Z,98463.34
2023-03-26T20:11:58.107Z,98456.59
2023-03-26T20:17:14.628Z,98444.13
2023-03-26T20:19:48.991Z,98438.59
2023-03-26T20:22:26.098Z,98437.25
2023-03-26T20:24:55.121Z,98427.44
2023-03-26T20:27:30.358Z,98422.38
2023-03-26T20:30:05.214Z,98422.78
2023-03-26T20:32:36.050Z,98418.28
2023-03-26T20:35:35.483Z,98412.38
2023-03-26T20:38:17.054Z,98408.81
2023-03-26T20:40:49.790Z,98402.78
2023-03-26T20:43:20.042Z,98410.13
2023-03-26T20:45:52.067Z,98406.72
2023-03-26T20:48:27.021Z,98399.44
2023-03-26T20:50:55.169Z,98404.62
2023-03-26T20:53:25.793Z,98401.13
2023-03-26T20:55:55.656Z,98395.09
2023-03-26T20:58:30.737Z,98392.25
2023-03-26T21:01:03.091Z,98397.31
2023-03-26T21:03:32.088Z,98388.91
2023-03-26T21:06:05.406Z,98388.31
2023-03-26T21:08:34.965Z,98386.63
2023-03-26T21:11:08.140Z,98387.88
2023-03-26T21:13:58.018Z,98393.63
2023-03-26T21:16:28.205Z,98401.03
2023-03-26T21:18:57.579Z,98421.19
2023-03-26T21:21:48.252Z,98432.13
2023-03-26T21:24:22.115Z,98438.72
2023-03-26T21:27:33.837Z,98438.03
2023-03-26T21:30:16.750Z,98437.44
2023-03-26T21:32:46.889Z,98441.34
2023-03-26T21:35:17.058Z,98450.25
2023-03-26T21:37:48.830Z,98439.91
2023-03-26T21:40:21.172Z,98446.00
2023-03-26T21:42:53.017Z,98447.56
2023-03-26T21:45:21.951Z,98444.13
2023-03-26T21:47:52.276Z,98439.66
2023-03-26T21:52:57.169Z,98445.34
2023-03-26T21:55:25.967Z,98443.31
2023-03-26T21:58:28.153Z,98448.91
2023-03-26T22:01:19.384Z,98439.75
2023-03-26T22:03:48.085Z,98450.28
2023-03-26T22:06:27.149Z,98451.31
2023-03-26T22:08:55.417Z,98457.47
2023-03-26T22:11:25.039Z,98456.25
2023-03-26T22:13:57.141Z,98461.00
2023-03-26T22:16:27.061Z,98462.56
2023-03-26T22:18:58.482Z,98458.81
2023-03-26T22:21:28.140Z,98454.37
2023-03-26T22:23:55.537Z,98452.22
2023-03-26T22:26:24.229Z,98455.81
2023-03-26T22:28:53.184Z,98452.19
2023-03-26T22:31:26.695Z,98445.47
2023-03-26T22:33:59.993Z,98442.69
2023-03-26T22:36:28.716Z,98426.62
2023-03-26T22:38:57.949Z,98419.75
2023-03-26T22:41:25.966Z,98411.34
2023-03-26T22:46:31.227Z,98390.25
2023-03-26T22:49:00.625Z,98399.19
2023-03-26T22:51:31.314Z,98392.41
2023-03-26T22:54:03.950Z,98392.66
2023-03-26T22:56:32.954Z,98385.66
2023-03-26T22:59:00.716Z,98385.66
2023-03-26T23:01:30.325Z,98377.47
2023-03-26T23:03:59.519Z,98378.44
2023-03-26T23:06:27.828Z,98384.81
2023-03-26T23:08:57.106Z,98384.69
2023-03-26T23:11:25.354Z,98381.09
2023-03-26T23:13:56.013Z,98368.75
2023-03-26T23:16:23.578Z,98370.91
2023-03-26T23:18:52.045Z,98364.41
2023-03-26T23:21:21.810Z,98356.34
2023-03-26T23:23:54.128Z,98351.53
2023-03-26T23:26:22.089Z,98345.38
2023-03-26T23:28:51.363Z,98342.38
2023-03-26T23:31:19.675Z,98338.41
2023-03-26T23:33:47.491Z,98337.31
2023-03-26T23:36:18.410Z,98326.72
2023-03-26T23:38:48.584Z,98325.66
2023-03-26T23:41:28.311Z,98323.69
2023-03-26T23:43:56.725Z,98316.94
2023-03-26T23:46:30.992Z,98306.47
2023-03-26T23:49:00.112Z,98310.56
2023-03-26T23:51:30.313Z,98301.34
2023-03-26T23:54:00.005Z,98295.38
2023-03-26T23:56:29.688Z,98287.78
2023-03-26T23:58:58.328Z,98292.09
